Time;durP1;ratioP1;P1;durP2;ratioP2;P2;SDS_P1;SDS_P2;PMS_P1;PMS_P2;Temp;Humidity;BMP_temperature;BMP_pressure;BME280_temperature;BME280_humidity;BME280_pressure;Samples;Min_cycle;Max_cycle;Signal;HPM_P1;HPM_P2
2023/07/10 00:01:26;;;;;;;2.72;2.40;;;;;;;-144.61;100.00;62523.38;5088019;28;20205;-73
2023/07/10 00:03:54;;;;;;;3.65;2.30;;;;;;;-144.61;100.00;62523.38;5088205;28;20298;-73
2023/07/10 00:06:21;;;;;;;3.42;2.42;;;;;;;-144.61;100.00;62523.38;5091673;28;20210;-73
2023/07/10 00:08:48;;;;;;;4.03;2.72;;;;;;;-144.61;100.00;62523.38;5091512;28;20222;-73
2023/07/10 00:11:18;;;;;;;3.53;2.50;;;;;;;-144.61;100.00;62523.38;5078937;28;20264;-75
2023/07/10 00:13:46;;;;;;;5.45;2.70;;;;;;;-144.61;100.00;62523.38;5091916;28;20217;-75
2023/07/10 00:16:16;;;;;;;3.63;2.55;;;;;;;-144.61;100.00;62523.38;5092500;28;20267;-73
2023/07/10 00:18:43;;;;;;;3.65;2.30;;;;;;;-144.61;100.00;62523.38;5092168;28;20252;-73
2023/07/10 00:21:10;;;;;;;5.65;2.70;;;;;;;-144.61;100.00;62523.38;5092280;28;20267;-73
2023/07/10 00:23:37;;;;;;;3.80;2.50;;;;;;;-144.61;100.00;62523.38;5091717;28;20210;-73
2023/07/10 00:26:10;;;;;;;3.38;2.60;;;;;;;-144.61;100.00;62523.38;5091746;28;20240;-73
2023/07/10 00:28:37;;;;;;;3.40;2.30;;;;;;;-144.61;100.00;62523.38;5091721;28;20251;-73
2023/07/10 00:31:06;;;;;;;3.22;2.55;;;;;;;-144.61;100.00;62523.38;5091328;28;20378;-74
2023/07/10 00:33:32;;;;;;;3.20;2.72;;;;;;;-144.61;100.00;62523.38;5091911;28;20207;-74
2023/07/10 00:35:59;;;;;;;3.50;2.35;;;;;;;-144.61;100.00;62523.38;5089011;28;20618;-74
2023/07/10 00:38:29;;;;;;;3.05;2.53;;;;;;;-144.61;100.00;62523.38;5090210;28;20726;-74
2023/07/10 00:40:58;;;;;;;4.45;2.60;;;;;;;-144.61;100.00;62523.38;5091571;28;20206;-74
2023/07/10 00:43:29;;;;;;;2.55;1.88;;;;;;;-144.61;100.00;62523.38;5091440;28;20708;-74
2023/07/10 00:46:01;;;;;;;2.55;2.10;;;;;;;-144.61;100.00;62523.38;5091781;28;20202;-74
2023/07/10 00:48:40;;;;;;;5.88;2.88;;;;;;;-144.61;100.00;62523.38;5091542;28;20247;-74
2023/07/10 00:51:17;;;;;;;4.80;3.10;;;;;;;-144.61;100.00;62523.38;5091855;28;20205;-74
2023/07/10 00:53:46;;;;;;;3.22;2.38;;;;;;;-144.61;100.00;62523.38;5091651;28;20198;-74
2023/07/10 00:56:18;;;;;;;3.33;2.60;;;;;;;-144.61;100.00;62523.38;5091895;28;20279;-74
2023/07/10 00:58:46;;;;;;;5.13;2.45;;;;;;;-144.61;100.00;62523.38;5091176;28;20665;-74
2023/07/10 01:01:15;;;;;;;3.70;2.60;;;;;;;-144.61;100.00;62523.38;5073227;28;20203;-74
2023/07/10 01:03:45;;;;;;;5.50;2.88;;;;;;;-144.61;100.00;62523.38;5070986;28;20659;-74
2023/07/10 01:06:17;;;;;;;3.13;2.33;;;;;;;-144.61;100.00;62523.38;5071398;28;20207;-74
2023/07/10 01:08:51;;;;;;;5.55;2.50;;;;;;;-144.61;100.00;62523.38;5071062;28;20570;-74
2023/07/10 01:11:19;;;;;;;4.20;2.92;;;;;;;-144.61;100.00;62523.38;5077951;28;20198;-74
2023/07/10 01:13:49;;;;;;;4.13;3.05;;;;;;;-144.61;100.00;62523.38;5091195;28;20206;-74
2023/07/10 01:16:17;;;;;;;4.38;2.85;;;;;;;-144.61;100.00;62523.38;5098395;28;20194;-74
2023/07/10 01:18:46;;;;;;;3.65;3.08;;;;;;;-144.61;100.00;62523.38;5083119;28;20293;-74
2023/07/10 01:21:23;;;;;;;4.20;2.67;;;;;;;-144.61;100.00;62523.38;5071102;28;20249;-74
2023/07/10 01:23:50;;;;;;;3.75;2.58;;;;;;;-144.61;100.00;62523.38;5070509;28;20210;-74
2023/07/10 01:26:17;;;;;;;4.63;2.75;;;;;;;-144.61;100.00;62523.38;5070559;28;20203;-74
2023/07/10 01:28:45;;;;;;;3.17;2.88;;;;;;;-144.61;100.00;62523.38;5070601;28;20735;-74
2023/07/10 01:31:14;;;;;;;5.57;2.55;;;;;;;-144.61;100.00;62523.38;5070376;28;20231;-74
2023/07/10 01:33:45;;;;;;;3.33;2.50;;;;;;;-144.61;100.00;62523.38;5070660;28;20272;-74
2023/07/10 01:36:16;;;;;;;4.03;2.58;;;;;;;-144.61;100.00;62523.38;5070924;28;20211;-74
2023/07/10 01:38:45;;;;;;;3.33;2.58;;;;;;;-144.61;100.00;62523.38;5070475;28;20206;-74
2023/07/10 01:41:26;;;;;;;3.83;2.72;;;;;;;-144.61;100.00;62523.38;5070686;28;20657;-74
2023/07/10 01:43:53;;;;;;;4.38;3.17;;;;;;;-144.61;100.00;62523.38;5077717;28;20233;-74
2023/07/10 01:46:22;;;;;;;3.72;2.83;;;;;;;-144.61;100.00;62523.38;5090519;28;20199;-74
2023/07/10 01:48:54;;;;;;;5.00;3.35;;;;;;;-144.61;100.00;62523.38;5090824;28;20210;-74
2023/07/10 01:51:23;;;;;;;4.60;3.13;;;;;;;-144.61;100.00;62523.38;5092981;28;20657;-74
2023/07/10 01:53:50;;;;;;;6.03;2.95;;;;;;;-144.61;100.00;62523.38;5091362;28;20203;-74
2023/07/10 01:56:21;;;;;;;4.80;3.20;;;;;;;-144.61;100.00;62523.38;5087100;28;20229;-74
2023/07/10 01:58:48;;;;;;;5.13;3.47;;;;;;;-144.61;100.00;62523.38;5090539;28;20206;-74
2023/07/10 02:01:14;;;;;;;5.45;3.40;;;;;;;-144.61;100.00;62523.38;5072912;28;20219;-74
2023/07/10 02:03:41;;;;;;;3.45;2.72;;;;;;;-144.61;100.00;62523.38;5069980;28;20566;-74
2023/07/10 02:06:08;;;;;;;4.43;3.08;;;;;;;-144.61;100.00;62523.38;5069556;28;20303;-74
2023/07/10 02:08:36;;;;;;;4.47;3.17;;;;;;;-144.61;100.00;62523.38;5070243;28;20222;-74
2023/07/10 02:11:03;;;;;;;4.70;2.85;;;;;;;-144.61;100.00;62523.38;5069563;28;20694;-74
2023/07/10 02:13:30;;;;;;;5.10;3.17;;;;;;;-144.61;100.00;62523.38;5070270;28;20230;-74
2023/07/10 02:16:02;;;;;;;6.88;3.03;;;;;;;-144.61;100.00;62523.38;5073478;28;20217;-74
2023/07/10 02:18:28;;;;;;;5.07;3.30;;;;;;;-144.61;100.00;62523.38;5090394;28;20268;-74
2023/07/10 02:20:55;;;;;;;5.68;3.20;;;;;;;-144.61;100.00;62523.38;5089849;28;20263;-74
2023/07/10 02:23:22;;;;;;;4.38;2.50;;;;;;;-144.61;100.00;62523.38;5090198;28;20260;-73
2023/07/10 02:25:51;;;;;;;3.67;2.78;;;;;;;-144.61;100.00;62523.38;5089781;28;20210;-74
2023/07/10 02:28:17;;;;;;;6.38;3.08;;;;;;;-144.61;100.00;62523.38;5089358;28;20214;-73
2023/07/10 02:30:44;;;;;;;6.13;3.33;;;;;;;-144.61;100.00;62523.38;5097569;28;20308;-74
2023/07/10 02:33:11;;;;;;;6.63;3.10;;;;;;;-144.61;100.00;62523.38;5069415;28;20600;-73
2023/07/10 02:35:38;;;;;;;4.43;3.13;;;;;;;-144.61;100.00;62523.38;5069775;28;20206;-73
2023/07/10 02:38:05;;;;;;;3.88;2.78;;;;;;;-144.61;100.00;62523.38;5069013;28;20213;-73
2023/07/10 02:40:32;;;;;;;4.68;3.08;;;;;;;-144.61;100.00;62523.38;5069318;28;20396;-73
2023/07/10 02:43:00;;;;;;;4.55;2.90;;;;;;;-144.61;100.00;62523.38;5069450;28;20203;-74
2023/07/10 02:45:27;;;;;;;6.68;3.30;;;;;;;-144.61;100.00;62523.38;5077827;28;20308;-74
2023/07/10 02:47:54;;;;;;;3.90;3.00;;;;;;;-144.61;100.00;62523.38;5089542;28;20210;-74
2023/07/10 02:50:21;;;;;;;9.60;3.97;;;;;;;-144.61;100.00;62523.38;5089324;28;20233;-74
2023/07/10 02:52:47;;;;;;;4.35;3.58;;;;;;;-144.61;100.00;62523.38;5089437;28;20206;-73
2023/07/10 02:55:14;;;;;;;6.35;3.38;;;;;;;-144.61;100.00;62523.38;5088679;28;20791;-73
2023/07/10 02:57:41;;;;;;;5.15;3.75;;;;;;;-144.61;100.00;62523.38;5089729;28;20206;-72
2023/07/10 03:00:10;;;;;;;6.10;3.38;;;;;;;-144.61;100.00;62523.38;5098230;28;20206;-75
2023/07/10 03:02:37;;;;;;;7.85;3.28;;;;;;;-144.61;100.00;62523.38;5089128;28;20260;-73
2023/07/10 03:05:05;;;;;;;4.65;3.15;;;;;;;-144.61;100.00;62523.38;5089166;28;20270;-73
2023/07/10 03:07:32;;;;;;;3.60;2.95;;;;;;;-144.61;100.00;62523.38;5089132;28;20202;-73
2023/07/10 03:09:59;;;;;;;3.67;2.92;;;;;;;-144.61;100.00;62523.38;5087967;28;20230;-73
2023/07/10 03:12:26;;;;;;;6.25;4.05;;;;;;;-144.61;100.00;62523.38;5087949;28;20220;-73
2023/07/10 03:14:53;;;;;;;7.60;3.45;;;;;;;-144.61;100.00;62523.38;5088688;28;20267;-73
2023/07/10 03:17:21;;;;;;;6.03;3.67;;;;;;;-144.61;100.00;62523.38;5088877;28;20714;-73
2023/07/10 03:19:48;;;;;;;5.72;3.72;;;;;;;-144.61;100.00;62523.38;5088966;28;20283;-73
2023/07/10 03:22:15;;;;;;;5.20;3.03;;;;;;;-144.61;100.00;62523.38;5088817;28;20218;-73
2023/07/10 03:24:42;;;;;;;4.50;3.47;;;;;;;-144.61;100.00;62523.38;5089232;28;20207;-73
2023/07/10 03:27:09;;;;;;;6.25;3.75;;;;;;;-144.61;100.00;62523.38;5088133;28;20232;-73
2023/07/10 03:29:36;;;;;;;7.50;3.55;;;;;;;-144.61;100.00;62523.38;5088072;28;20287;-73
2023/07/10 03:32:03;;;;;;;6.25;3.63;;;;;;;-144.61;100.00;62523.38;5087979;28;20202;-74
2023/07/10 03:34:31;;;;;;;5.93;3.50;;;;;;;-144.61;100.00;62523.38;5088535;28;20789;-73
2023/07/10 03:36:58;;;;;;;4.72;3.78;;;;;;;-144.61;100.00;62523.38;5088591;28;20573;-73
2023/07/10 03:39:25;;;;;;;6.05;3.30;;;;;;;-144.61;100.00;62523.38;5088411;28;20293;-74
2023/07/10 03:41:51;;;;;;;5.63;3.92;;;;;;;-144.61;100.00;62523.38;5088264;28;20263;-73
2023/07/10 03:44:18;;;;;;;6.90;3.80;;;;;;;-144.61;100.00;62523.38;5088385;28;20315;-74
2023/07/10 03:46:45;;;;;;;4.00;3.42;;;;;;;-144.61;100.00;62523.38;5093782;28;20210;-74
2023/07/10 03:49:12;;;;;;;5.65;3.15;;;;;;;-144.61;100.00;62523.38;5085512;28;20203;-74
2023/07/10 03:51:40;;;;;;;6.57;4.00;;;;;;;-144.61;100.00;62523.38;5087735;28;20252;-74
2023/07/10 03:54:07;;;;;;;5.38;3.38;;;;;;;-144.61;100.00;62523.38;5088483;28;20202;-74
2023/07/10 03:56:34;;;;;;;4.22;3.58;;;;;;;-144.61;100.00;62523.38;5088538;28;20242;-75
2023/07/10 03:59:01;;;;;;;4.80;3.42;;;;;;;-144.61;100.00;62523.38;5088524;28;20202;-75
2023/07/10 04:01:28;;;;;;;4.93;3.78;;;;;;;-144.61;100.00;62523.38;5068614;28;20252;-75
2023/07/10 04:03:55;;;;;;;8.48;3.75;;;;;;;-144.61;100.00;62523.38;5068551;28;20272;-75
2023/07/10 04:06:21;;;;;;;6.30;3.97;;;;;;;-144.61;100.00;62523.38;5074691;28;20581;-75
2023/07/10 04:08:49;;;;;;;6.05;3.65;;;;;;;-144.61;100.00;62523.38;5088369;28;20287;-74
2023/07/10 04:11:19;;;;;;;5.40;3.67;;;;;;;-144.61;100.00;62523.38;5095184;28;20284;-76
2023/07/10 04:13:46;;;;;;;6.70;3.70;;;;;;;-144.61;100.00;62523.38;5068023;28;20211;-76
2023/07/10 04:16:16;;;;;;;8.38;3.70;;;;;;;-144.61;100.00;62523.38;5075033;28;20710;-76
2023/07/10 04:18:44;;;;;;;5.57;3.50;;;;;;;-144.61;100.00;62523.38;5088980;28;20203;-76
2023/07/10 04:21:14;;;;;;;6.60;4.05;;;;;;;-144.61;100.00;62523.38;5088716;28;20217;-75
2023/07/10 04:23:40;;;;;;;4.63;3.80;;;;;;;-144.61;100.00;62523.38;5089311;28;20645;-75
2023/07/10 04:26:15;;;;;;;5.18;3.70;;;;;;;-144.61;100.00;62523.38;5101441;28;20203;-75
2023/07/10 04:28:42;;;;;;;7.25;3.58;;;;;;;-144.61;100.00;62523.38;5099777;28;20186;-75
2023/07/10 04:31:08;;;;;;;8.40;3.90;;;;;;;-144.61;100.00;62523.38;5067977;28;20235;-75
2023/07/10 04:33:36;;;;;;;6.63;3.80;;;;;;;-144.61;100.00;62523.38;5067902;28;20563;-75
2023/07/10 04:36:03;;;;;;;5.75;3.58;;;;;;;-144.61;100.00;62523.38;5068156;28;20207;-75
2023/07/10 04:38:30;;;;;;;7.28;3.85;;;;;;;-144.61;100.00;62523.38;5067143;28;20207;-77
2023/07/10 04:40:58;;;;;;;6.47;3.92;;;;;;;-144.61;100.00;62523.38;5083743;28;20195;-75
2023/07/10 04:43:28;;;;;;;7.45;3.70;;;;;;;-144.61;100.00;62523.38;5084625;28;20234;-73
2023/07/10 04:45:56;;;;;;;5.78;3.88;;;;;;;-144.61;100.00;62523.38;5089073;28;20203;-74
2023/07/10 04:48:23;;;;;;;7.22;4.63;;;;;;;-144.61;100.00;62523.38;5102397;28;20206;-76
2023/07/10 04:50:52;;;;;;;7.68;4.10;;;;;;;-144.61;100.00;62523.38;5101022;28;20234;-76
2023/07/10 04:53:19;;;;;;;5.75;4.15;;;;;;;-144.61;100.00;62523.38;5093967;28;20277;-75
2023/07/10 04:55:48;;;;;;;8.25;4.63;;;;;;;-144.61;100.00;62523.38;5093758;28;20572;-76
2023/07/10 04:58:15;;;;;;;6.18;3.90;;;;;;;-144.61;100.00;62523.38;5106425;28;20789;-75
2023/07/10 05:00:44;;;;;;;5.50;3.80;;;;;;;-144.61;100.00;62523.38;5092087;28;20247;-75
2023/07/10 05:03:11;;;;;;;9.00;4.70;;;;;;;-144.61;100.00;62523.38;5091435;28;20213;-75
2023/07/10 05:05:38;;;;;;;8.02;4.03;;;;;;;-144.61;100.00;62523.38;5091196;28;20564;-76
2023/07/10 05:08:05;;;;;;;7.25;3.97;;;;;;;-144.61;100.00;62523.38;5089302;28;20260;-75
2023/07/10 05:10:31;;;;;;;7.25;4.03;;;;;;;-144.61;100.00;62523.38;5080507;28;20839;-74
2023/07/10 05:12:58;;;;;;;10.05;4.20;;;;;;;-144.61;100.00;62523.38;5090514;28;20198;-75
2023/07/10 05:15:25;;;;;;;8.68;3.80;;;;;;;-144.61;100.00;62523.38;5087110;28;20252;-75
2023/07/10 05:17:53;;;;;;;5.32;3.80;;;;;;;-144.61;100.00;62523.38;5101360;28;20207;-77
2023/07/10 05:20:20;;;;;;;6.07;4.40;;;;;;;-144.61;100.00;62523.38;5088594;28;20235;-76
2023/07/10 05:22:47;;;;;;;9.02;4.13;;;;;;;-144.61;100.00;62523.38;5085866;28;20205;-76
2023/07/10 05:25:14;;;;;;;4.53;3.58;;;;;;;-144.61;100.00;62523.38;5089698;28;20677;-76
2023/07/10 05:27:40;;;;;;;6.78;3.78;;;;;;;-144.61;100.00;62523.38;5084108;28;20290;-77
2023/07/10 05:30:08;;;;;;;6.80;4.03;;;;;;;-144.61;100.00;62523.38;5084038;28;20209;-76
2023/07/10 05:32:35;;;;;;;9.57;4.57;;;;;;;-144.61;100.00;62523.38;5077006;28;20203;-75
2023/07/10 05:35:04;;;;;;;18.92;4.82;;;;;;;-144.61;100.00;62523.38;5083156;28;20203;-75
2023/07/10 05:37:30;;;;;;;7.15;4.22;;;;;;;-144.61;100.00;62523.38;5080966;28;20532;-76
2023/07/10 05:39:57;;;;;;;7.72;3.60;;;;;;;-144.61;100.00;62523.38;5081408;28;20619;-76
2023/07/10 05:42:25;;;;;;;4.97;4.05;;;;;;;-144.61;100.00;62523.38;5084040;28;20612;-76
2023/07/10 05:44:51;;;;;;;9.27;4.25;;;;;;;-144.61;100.00;62523.38;5080818;28;20230;-75
2023/07/10 05:47:18;;;;;;;9.07;4.45;;;;;;;-144.61;100.00;62523.38;5096268;28;20202;-75
2023/07/10 05:49:45;;;;;;;6.18;4.00;;;;;;;-144.61;100.00;62523.38;5107817;28;20549;-77
2023/07/10 05:52:13;;;;;;;8.13;4.13;;;;;;;-144.61;100.00;62523.38;5090078;28;20222;-77
2023/07/10 05:54:40;;;;;;;10.30;4.65;;;;;;;-144.61;100.00;62523.38;5081611;28;20255;-77
2023/07/10 05:57:07;;;;;;;7.20;4.00;;;;;;;-144.61;100.00;62523.38;5089673;28;20619;-75
2023/07/10 05:59:34;;;;;;;6.28;4.10;;;;;;;-144.61;100.00;62523.38;5084402;28;20213;-76
2023/07/10 06:02:01;;;;;;;6.57;4.55;;;;;;;-144.61;100.00;62523.38;5086961;28;20267;-77
2023/07/10 06:04:27;;;;;;;6.63;4.20;;;;;;;-144.61;100.00;62523.38;5080572;28;20199;-77
2023/07/10 06:06:54;;;;;;;5.95;4.00;;;;;;;-144.61;100.00;62523.38;5080528;28;20599;-77
2023/07/10 06:09:22;;;;;;;6.50;4.15;;;;;;;-144.61;100.00;62523.38;5083064;28;20241;-75
2023/07/10 06:11:49;;;;;;;6.68;3.80;;;;;;;-144.61;100.00;62523.38;5080534;28;20222;-75
2023/07/10 06:14:15;;;;;;;4.32;3.78;;;;;;;-144.61;100.00;62523.38;5079264;28;20595;-73
2023/07/10 06:16:42;;;;;;;4.93;3.60;;;;;;;-144.61;100.00;62523.38;5076569;28;20203;-75
2023/07/10 06:19:09;;;;;;;5.78;3.55;;;;;;;-144.61;100.00;62523.38;5079854;28;20194;-75
2023/07/10 06:21:36;;;;;;;7.80;4.38;;;;;;;-144.61;100.00;62523.38;5079824;28;20259;-76
2023/07/10 06:24:02;;;;;;;5.40;3.63;;;;;;;-144.61;100.00;62523.38;5078402;28;20211;-75
2023/07/10 06:26:31;;;;;;;7.00;3.60;;;;;;;-144.61;100.00;62523.38;5083050;28;20553;-73
2023/07/10 06:28:57;;;;;;;5.05;3.70;;;;;;;-144.61;100.00;62523.38;5084449;28;20211;-73
2023/07/10 06:31:24;;;;;;;5.90;3.30;;;;;;;-144.61;100.00;62523.38;5082578;28;20646;-75
2023/07/10 06:33:51;;;;;;;5.22;3.63;;;;;;;-144.61;100.00;62523.38;5086199;28;20207;-76
2023/07/10 06:36:18;;;;;;;9.95;3.72;;;;;;;-144.61;100.00;62523.38;5086604;28;20649;-76
2023/07/10 06:38:45;;;;;;;4.75;3.45;;;;;;;-144.61;100.00;62523.38;5087451;28;20198;-76
2023/07/10 06:41:13;;;;;;;5.22;3.53;;;;;;;-144.61;100.00;62523.38;5079094;28;20194;-76
2023/07/10 06:43:41;;;;;;;5.30;3.65;;;;;;;-144.61;100.00;62523.38;5069241;28;20272;-75
2023/07/10 06:46:08;;;;;;;5.25;3.28;;;;;;;-144.61;100.00;62523.38;5083154;28;20202;-77
2023/07/10 06:48:35;;;;;;;4.60;3.50;;;;;;;-144.61;100.00;62523.38;5088105;28;20194;-78
2023/07/10 06:51:01;;;;;;;5.40;3.75;;;;;;;-144.61;100.00;62523.38;5088842;28;20226;-78
2023/07/10 06:53:28;;;;;;;3.65;3.28;;;;;;;-144.61;100.00;62523.38;5088155;28;20198;-76
2023/07/10 06:55:56;;;;;;;5.43;3.47;;;;;;;-144.61;100.00;62523.38;5087447;28;20271;-76
2023/07/10 06:58:23;;;;;;;5.97;4.13;;;;;;;-144.61;100.00;62523.38;5095185;28;20211;-77
2023/07/10 07:00:53;;;;;;;6.25;3.83;;;;;;;-144.61;100.00;62523.38;5085930;28;20646;-77
2023/07/10 07:03:20;;;;;;;6.22;3.72;;;;;;;-144.61;100.00;62523.38;5087232;28;20202;-77
2023/07/10 07:05:47;;;;;;;5.10;3.22;;;;;;;-144.61;100.00;62523.38;5089189;28;20198;-75
2023/07/10 07:08:17;;;;;;;5.75;3.40;;;;;;;-144.61;100.00;62523.38;5086220;28;20198;-76
2023/07/10 07:10:44;;;;;;;8.63;3.45;;;;;;;-144.61;100.00;62523.38;5088535;28;20229;-76
2023/07/10 07:13:11;;;;;;;7.45;3.63;;;;;;;-144.61;100.00;62523.38;5088094;28;20203;-77
2023/07/10 07:15:38;;;;;;;4.20;3.42;;;;;;;-144.61;100.00;62523.38;5099526;28;20205;-75
2023/07/10 07:18:06;;;;;;;4.57;3.45;;;;;;;-144.61;100.00;62523.38;5077838;28;20203;-76
2023/07/10 07:20:33;;;;;;;5.05;3.38;;;;;;;-144.61;100.00;62523.38;5088956;28;20218;-75
2023/07/10 07:23:00;;;;;;;5.45;3.35;;;;;;;-144.61;100.00;62523.38;5088969;28;20206;-76
2023/07/10 07:25:29;;;;;;;4.43;3.10;;;;;;;-144.61;100.00;62523.38;5088883;28;20218;-76
2023/07/10 07:27:59;;;;;;;3.90;3.20;;;;;;;-144.61;100.00;62523.38;5088800;28;20210;-75
2023/07/10 07:30:26;;;;;;;5.20;3.15;;;;;;;-144.61;100.00;62523.38;5088801;28;20634;-77
2023/07/10 07:32:52;;;;;;;5.07;3.33;;;;;;;-144.61;100.00;62523.38;5088515;28;20619;-77
2023/07/10 07:35:20;;;;;;;4.45;3.53;;;;;;;-144.61;100.00;62523.38;5088414;28;20210;-77
2023/07/10 07:37:47;;;;;;;6.22;3.50;;;;;;;-144.61;100.00;62523.38;5089086;28;20276;-77
2023/07/10 07:40:16;;;;;;;5.50;3.53;;;;;;;-144.61;100.00;62523.38;5088215;28;20693;-75
2023/07/10 07:42:43;;;;;;;3.75;3.10;;;;;;;-144.61;100.00;62523.38;5100112;28;20228;-77
2023/07/10 07:45:10;;;;;;;4.90;2.88;;;;;;;-144.61;100.00;62523.38;5077800;28;20222;-76
2023/07/10 07:47:40;;;;;;;3.22;2.92;;;;;;;-144.61;100.00;62523.38;5088402;28;20208;-76
2023/07/10 07:50:08;;;;;;;4.47;3.38;;;;;;;-144.61;100.00;62523.38;5088362;28;20631;-77
2023/07/10 07:52:36;;;;;;;4.15;3.20;;;;;;;-144.61;100.00;62523.38;5088880;28;20244;-77
2023/07/10 07:55:04;;;;;;;6.50;3.25;;;;;;;-144.61;100.00;62523.38;5088239;28;20202;-78
2023/07/10 07:57:30;;;;;;;3.75;3.22;;;;;;;-144.61;100.00;62523.38;5088177;28;20649;-76
2023/07/10 07:59:59;;;;;;;5.45;3.30;;;;;;;-144.61;100.00;62523.38;5081950;28;20252;-75
2023/07/10 08:02:26;;;;;;;3.60;3.30;;;;;;;-144.61;100.00;62523.38;5068131;28;20210;-75
2023/07/10 08:04:53;;;;;;;4.40;3.60;;;;;;;-144.61;100.00;62523.38;5067331;28;20209;-77
2023/07/10 08:07:20;;;;;;;6.32;3.20;;;;;;;-144.61;100.00;62523.38;5067754;28;20218;-77
2023/07/10 08:09:48;;;;;;;9.18;3.33;;;;;;;-144.61;100.00;62523.38;5067658;28;20283;-77
2023/07/10 08:12:15;;;;;;;3.72;3.20;;;;;;;-144.61;100.00;62523.38;5067743;28;20235;-76
2023/07/10 08:14:41;;;;;;;3.55;3.22;;;;;;;-144.61;100.00;62523.38;5075521;28;20198;-76
2023/07/10 08:17:08;;;;;;;4.28;3.00;;;;;;;-144.61;100.00;62523.38;5088353;28;20210;-76
2023/07/10 08:19:35;;;;;;;4.15;2.90;;;;;;;-144.61;100.00;62523.38;5088660;28;20251;-76
2023/07/10 08:22:02;;;;;;;5.20;3.25;;;;;;;-144.61;100.00;62523.38;5088006;28;20264;-76
2023/07/10 08:24:29;;;;;;;3.55;2.90;;;;;;;-144.61;100.00;62523.38;5088460;28;20202;-74
2023/07/10 08:26:57;;;;;;;5.25;3.22;;;;;;;-144.61;100.00;62523.38;5091516;28;20206;-76
2023/07/10 08:29:29;;;;;;;3.83;2.92;;;;;;;-144.61;100.00;62523.38;5091967;28;20210;-77
2023/07/10 08:31:58;;;;;;;4.75;3.15;;;;;;;-144.61;100.00;62523.38;5089668;28;20219;-78
2023/07/10 08:34:26;;;;;;;4.22;3.53;;;;;;;-144.61;100.00;62523.38;5091418;28;20305;-76
2023/07/10 08:36:54;;;;;;;3.05;2.80;;;;;;;-144.61;100.00;62523.38;5092016;28;20210;-74
2023/07/10 08:39:23;;;;;;;4.80;2.90;;;;;;;-144.61;100.00;62523.38;5091905;28;20210;-76
2023/07/10 08:41:52;;;;;;;3.88;2.97;;;;;;;-144.61;100.00;62523.38;5091633;28;20210;-76
2023/07/10 08:44:26;;;;;;;5.05;3.40;;;;;;;-144.61;100.00;62523.38;5090928;28;20238;-75
2023/07/10 08:46:53;;;;;;;4.72;3.40;;;;;;;-144.61;100.00;62523.38;5090464;28;20724;-76
2023/07/10 08:49:31;;;;;;;4.70;2.90;;;;;;;-144.61;100.00;62523.38;5090861;28;20210;-75
2023/07/10 08:52:06;;;;;;;4.25;3.03;;;;;;;-144.61;100.00;62523.38;5090861;28;20234;-76
2023/07/10 08:54:33;;;;;;;4.93;3.10;;;;;;;-144.61;100.00;62523.38;5091195;28;20202;-76
2023/07/10 08:57:12;;;;;;;3.70;2.90;;;;;;;-144.61;100.00;62523.38;5091399;28;20199;-76
2023/07/10 08:59:48;;;;;;;4.45;3.22;;;;;;;-144.61;100.00;62523.38;5086276;28;20211;-75
2023/07/10 09:02:20;;;;;;;11.10;5.28;;;;;;;-144.61;100.00;62523.38;5070171;28;20267;-76
2023/07/10 09:04:49;;;;;;;5.22;3.47;;;;;;;-144.61;100.00;62523.38;5071245;28;20282;-76
2023/07/10 09:07:17;;;;;;;3.50;3.20;;;;;;;-144.61;100.00;62523.38;5071014;28;20691;-76
2023/07/10 09:09:49;;;;;;;5.65;3.17;;;;;;;-144.61;100.00;62523.38;5078517;28;20243;-75
2023/07/10 09:12:21;;;;;;;4.65;3.30;;;;;;;-144.61;100.00;62523.38;5090965;28;20587;-75
2023/07/10 09:14:54;;;;;;;4.15;3.20;;;;;;;-144.61;100.00;62523.38;5100310;28;20201;-74
2023/07/10 09:17:52;;;;;;;3.83;3.22;;;;;;;-144.61;100.00;62523.38;5078576;28;20708;-75
2023/07/10 09:20:22;;;;;;;4.05;3.20;;;;;;;-144.61;100.00;62523.38;5070574;28;20734;-76
2023/07/10 09:22:55;;;;;;;3.72;3.20;;;;;;;-144.61;100.00;62523.38;5071059;28;20207;-76
2023/07/10 09:25:23;;;;;;;4.63;3.00;;;;;;;-144.61;100.00;62523.38;5070808;28;20202;-77
2023/07/10 09:27:50;;;;;;;3.17;2.70;;;;;;;-144.61;100.00;62523.38;5070825;28;20229;-75
2023/07/10 09:30:36;;;;;;;4.70;3.30;;;;;;;-144.61;100.00;62523.38;5086828;28;20214;-78
2023/07/10 09:33:04;;;;;;;4.20;2.97;;;;;;;-144.61;100.00;62523.38;5090953;28;20229;-73
2023/07/10 09:35:31;;;;;;;4.78;3.08;;;;;;;-144.61;100.00;62523.38;5098865;28;20351;-78
2023/07/10 09:37:58;;;;;;;4.03;3.00;;;;;;;-144.61;100.00;62523.38;5070622;28;20210;-76
2023/07/10 09:40:37;;;;;;;3.00;2.70;;;;;;;-144.61;100.00;62523.38;5089605;28;20206;-76
2023/07/10 09:43:05;;;;;;;4.35;2.92;;;;;;;-144.61;100.00;62523.38;5091058;28;20234;-77
2023/07/10 09:45:40;;;;;;;3.58;2.78;;;;;;;-144.61;100.00;62523.38;5092471;28;20199;-73
2023/07/10 09:48:14;;;;;;;4.57;2.60;;;;;;;-144.61;100.00;62523.38;5086853;28;20210;-76
2023/07/10 09:50:46;;;;;;;6.03;3.20;;;;;;;-144.61;100.00;62523.38;5091029;28;20224;-75
2023/07/10 09:53:25;;;;;;;4.47;3.20;;;;;;;-144.61;100.00;62523.38;5090789;28;20222;-76
2023/07/10 09:55:52;;;;;;;4.35;2.72;;;;;;;-144.61;100.00;62523.38;5090627;28;20293;-76
2023/07/10 09:58:19;;;;;;;3.38;2.75;;;;;;;-144.61;100.00;62523.38;5090638;28;20260;-75
2023/07/10 10:00:48;;;;;;;4.43;3.15;;;;;;;-144.61;100.00;62523.38;5077991;28;20268;-78
2023/07/10 10:03:20;;;;;;;3.80;2.90;;;;;;;-144.61;100.00;62523.38;5070415;28;20555;-75
2023/07/10 10:05:53;;;;;;;4.18;2.50;;;;;;;-144.61;100.00;62523.38;5084015;28;20198;-75
2023/07/10 10:08:22;;;;;;;4.65;2.90;;;;;;;-144.61;100.00;62523.38;5090156;28;20199;-77
2023/07/10 10:11:02;;;;;;;3.47;2.80;;;;;;;-144.61;100.00;62523.38;5090005;28;20255;-75
2023/07/10 10:13:31;;;;;;;3.40;2.80;;;;;;;-144.61;100.00;62523.38;5090469;28;20233;-77
2023/07/10 10:16:05;;;;;;;3.25;2.72;;;;;;;-144.61;100.00;62523.38;5090543;28;20217;-76
2023/07/10 10:18:41;;;;;;;3.40;2.83;;;;;;;-144.61;100.00;62523.38;5090307;28;20609;-76
2023/07/10 10:21:12;;;;;;;4.38;2.70;;;;;;;-144.61;100.00;62523.38;5089925;28;20205;-77
2023/07/10 10:23:41;;;;;;;5.22;3.50;;;;;;;-144.61;100.00;62523.38;5090186;28;20206;-76
2023/07/10 10:26:36;;;;;;;3.80;2.50;;;;;;;-144.61;100.00;62523.38;5090095;28;20206;-77
2023/07/10 10:29:38;;;;;;;4.10;2.47;;;;;;;-144.61;100.00;62523.38;5076489;28;20202;-76
2023/07/10 10:32:18;;;;;;;2.92;2.60;;;;;;;-144.61;100.00;62523.38;5069469;28;20645;-75
2023/07/10 10:34:51;;;;;;;3.13;2.78;;;;;;;-144.61;100.00;62523.38;5089952;28;20198;-77
2023/07/10 10:37:33;;;;;;;5.80;2.88;;;;;;;-144.61;100.00;62523.38;5096943;28;20283;-76
2023/07/10 10:40:09;;;;;;;4.25;2.95;;;;;;;-144.61;100.00;62523.38;5069505;28;20202;-76
2023/07/10 10:42:44;;;;;;;2.83;2.63;;;;;;;-144.61;100.00;62523.38;5087709;28;20221;-77
2023/07/10 10:45:17;;;;;;;3.30;2.92;;;;;;;-144.61;100.00;62523.38;5081411;28;20312;-76
2023/07/10 10:47:54;;;;;;;5.10;2.80;;;;;;;-144.61;100.00;62523.38;5089477;28;20198;-75
2023/07/10 10:50:51;;;;;;;3.13;2.60;;;;;;;-144.61;100.00;62523.38;5076134;28;20201;-76
2023/07/10 10:53:46;;;;;;;3.40;2.97;;;;;;;-144.61;100.00;62523.38;5054443;28;20245;-74
2023/07/10 10:56:21;;;;;;;5.15;3.05;;;;;;;-144.61;100.00;62523.38;5087098;28;20234;-75
2023/07/10 10:58:57;;;;;;;5.18;2.45;;;;;;;-144.61;100.00;62523.38;5089726;28;20255;-76
2023/07/10 11:01:37;;;;;;;5.82;3.00;;;;;;;-144.61;100.00;62523.38;5087451;28;20205;-76
2023/07/10 11:04:15;;;;;;;3.83;2.88;;;;;;;-144.61;100.00;62523.38;5088492;28;20259;-74
2023/07/10 11:06:50;;;;;;;3.85;3.10;;;;;;;-144.61;100.00;62523.38;5089376;28;20226;-77
2023/07/10 11:09:21;;;;;;;5.65;2.90;;;;;;;-144.61;100.00;62523.38;5089706;28;20197;-76
2023/07/10 11:11:48;;;;;;;4.65;3.22;;;;;;;-144.61;100.00;62523.38;5089021;28;20206;-76
2023/07/10 11:14:15;;;;;;;3.08;2.78;;;;;;;-144.61;100.00;62523.38;5088616;28;20226;-77
2023/07/10 11:16:43;;;;;;;5.30;3.00;;;;;;;-144.61;100.00;62523.38;5089201;28;20206;-77
2023/07/10 11:19:17;;;;;;;4.65;3.22;;;;;;;-144.61;100.00;62523.38;5088991;28;20206;-76